createdAt,value
2022-11-16T00:00:20.830Z,3.10
2022-11-16T00:02:53.097Z,3.15
2022-11-16T00:05:28.189Z,6.85
2022-11-16T00:08:19.805Z,5.75
2022-11-16T00:10:50.201Z,4.60
2022-11-16T00:13:20.893Z,5.65
2022-11-16T00:15:58.736Z,4.30
2022-11-16T00:18:30.494Z,2.38
2022-11-16T00:21:01.712Z,6.78
2022-11-16T00:23:31.766Z,3.70
2022-11-16T00:26:06.985Z,2.63
2022-11-16T00:28:38.219Z,4.18
2022-11-16T00:31:09.548Z,4.75
2022-11-16T00:33:41.274Z,3.90
2022-11-16T00:36:14.146Z,8.75
2022-11-16T00:38:45.164Z,4.53
2022-11-16T00:41:16.929Z,5.13
2022-11-16T00:43:47.211Z,7.93
2022-11-16T00:46:17.367Z,4.97
2022-11-16T00:48:47.835Z,2.92
2022-11-16T00:51:18.214Z,3.17
2022-11-16T00:53:48.126Z,3.75
2022-11-16T00:56:18.150Z,3.30
2022-11-16T00:58:48.414Z,8.38
2022-11-16T01:01:19.686Z,7.53
2022-11-16T01:03:50.456Z,10.73
2022-11-16T01:06:21.923Z,5.22
2022-11-16T01:08:52.644Z,3.53
2022-11-16T01:11:41.187Z,5.05
2022-11-16T01:14:13.010Z,10.98
2022-11-16T01:16:44.913Z,5.95
2022-11-16T01:19:15.220Z,3.50
2022-11-16T01:21:45.544Z,5.82
2022-11-16T01:24:16.032Z,3.53
2022-11-16T01:26:46.294Z,4.38
2022-11-16T01:29:34.597Z,13.13
2022-11-16T01:32:05.360Z,5.78
2022-11-16T01:34:36.893Z,4.13
2022-11-16T01:37:15.541Z,4.47
2022-11-16T01:39:45.684Z,5.53
2022-11-16T01:42:24.330Z,2.60
2022-11-16T01:45:28.365Z,7.60
2022-11-16T01:48:00.205Z,3.00
2022-11-16T01:50:34.649Z,2.60
2022-11-16T01:53:26.079Z,3.47
2022-11-16T01:55:59.636Z,5.35
2022-11-16T01:58:48.410Z,4.60
2022-11-16T02:01:28.110Z,4.82
2022-11-16T02:04:02.919Z,6.03
2022-11-16T02:07:02.130Z,5.18
2022-11-16T02:10:02.684Z,4.30
2022-11-16T02:12:55.517Z,6.50
2022-11-16T02:15:47.276Z,5.88
2022-11-16T02:18:29.693Z,5.35
2022-11-16T02:21:13.188Z,5.20
2022-11-16T02:24:05.553Z,5.70
2022-11-16T02:27:02.952Z,7.60
2022-11-16T02:29:52.896Z,4.32
2022-11-16T02:32:43.856Z,5.22
2022-11-16T02:35:31.649Z,4.80
2022-11-16T02:38:12.669Z,6.10
2022-11-16T02:40:47.653Z,5.38
2022-11-16T02:43:39.858Z,5.60
2022-11-16T02:46:27.786Z,3.67
2022-11-16T02:49:01.957Z,4.75
2022-11-16T02:51:34.591Z,6.28
2022-11-16T02:54:14.154Z,2.78
2022-11-16T02:56:53.690Z,7.57
2022-11-16T02:59:32.570Z,7.43
2022-11-16T03:02:29.845Z,4.70
2022-11-16T03:05:39.254Z,4.18
2022-11-16T03:08:20.041Z,5.30
2022-11-16T03:11:31.218Z,9.77
2022-11-16T03:14:08.383Z,7.40
2022-11-16T03:16:47.132Z,5.43
2022-11-16T03:19:23.701Z,5.88
2022-11-16T03:21:59.406Z,4.13
2022-11-16T03:24:31.310Z,6.75
2022-11-16T03:27:10.975Z,4.90
2022-11-16T03:29:55.546Z,7.18
2022-11-16T03:32:48.986Z,4.10
2022-11-16T03:35:26.446Z,4.72
2022-11-16T03:38:00.954Z,5.78
2022-11-16T03:40:34.861Z,6.10
2022-11-16T03:43:08.200Z,8.98
2022-11-16T03:45:39.210Z,4.43
2022-11-16T03:48:11.217Z,4.13
2022-11-16T03:50:42.737Z,6.80
2022-11-16T03:53:13.382Z,4.90
2022-11-16T03:55:48.489Z,3.83
2022-11-16T03:58:20.612Z,3.40
2022-11-16T04:00:50.869Z,6.57
2022-11-16T04:03:21.769Z,4.70
2022-11-16T04:06:10.557Z,3.55
2022-11-16T04:08:59.196Z,5.53
2022-11-16T04:11:48.313Z,5.38
2022-11-16T04:14:41.562Z,9.25
2022-11-16T04:17:37.779Z,5.10
2022-11-16T04:20:27.409Z,4.80
2022-11-16T04:23:21.609Z,6.43
2022-11-16T04:25:55.815Z,4.95
2022-11-16T04:28:32.873Z,5.15
2022-11-16T04:31:26.589Z,7.82
2022-11-16T04:34:25.218Z,6.22
2022-11-16T04:37:17.752Z,4.13
2022-11-16T04:39:48.585Z,3.75
2022-11-16T04:42:24.219Z,3.50
2022-11-16T04:45:15.060Z,5.13
2022-11-16T04:47:54.441Z,8.10
2022-11-16T04:50:29.903Z,4.22
2022-11-16T04:53:08.311Z,5.03
2022-11-16T04:55:48.336Z,6.82
2022-11-16T04:58:26.113Z,3.80
2022-11-16T05:01:01.029Z,4.00
2022-11-16T05:06:19.660Z,7.85
2022-11-16T05:08:54.092Z,6.40
2022-11-16T05:11:34.555Z,4.95
2022-11-16T05:14:26.106Z,3.03
2022-11-16T05:16:57.377Z,3.60
2022-11-16T05:19:48.728Z,2.55
2022-11-16T05:22:19.321Z,2.88
2022-11-16T05:24:53.169Z,5.72
2022-11-16T05:27:25.942Z,4.63
2022-11-16T05:30:01.338Z,4.65
2022-11-16T05:32:32.446Z,4.28
2022-11-16T05:35:04.349Z,3.53
2022-11-16T05:37:36.100Z,2.95
2022-11-16T05:40:07.587Z,2.65
2022-11-16T05:42:44.918Z,4.82
2022-11-16T05:45:20.763Z,4.80
2022-11-16T05:47:52.541Z,3.20
2022-11-16T05:50:25.055Z,4.32
2022-11-16T05:53:07.416Z,2.65
2022-11-16T05:55:38.664Z,2.78
2022-11-16T05:58:09.625Z,3.85
2022-11-16T06:00:41.552Z,2.90
2022-11-16T06:03:13.502Z,2.88
2022-11-16T06:05:44.897Z,2.97
2022-11-16T06:08:18.014Z,3.97
2022-11-16T06:10:51.054Z,2.80
2022-11-16T06:13:21.533Z,4.00
2022-11-16T06:15:56.039Z,4.13
2022-11-16T06:18:27.368Z,2.47
2022-11-16T06:20:58.708Z,6.95
2022-11-16T06:23:29.130Z,3.75
2022-11-16T06:26:00.029Z,5.10
2022-11-16T06:28:32.206Z,4.10
2022-11-16T06:31:03.687Z,3.00
2022-11-16T06:33:38.283Z,3.45
2022-11-16T06:36:14.755Z,3.40
2022-11-16T06:38:46.455Z,2.90
2022-11-16T06:41:18.090Z,4.80
2022-11-16T06:43:51.817Z,3.83
2022-11-16T06:46:26.231Z,2.70
2022-11-16T06:48:59.041Z,2.75
2022-11-16T06:51:29.974Z,2.25
2022-11-16T06:54:01.345Z,3.28
2022-11-16T06:56:32.048Z,2.58
2022-11-16T06:59:03.278Z,2.15
2022-11-16T07:01:34.054Z,2.72
2022-11-16T07:04:13.390Z,1.73
2022-11-16T07:06:49.618Z,4.20
2022-11-16T07:09:21.313Z,5.30
2022-11-16T07:11:51.904Z,4.60
2022-11-16T07:14:24.119Z,3.40
2022-11-16T07:16:59.354Z,4.03
2022-11-16T07:19:31.264Z,4.30
2022-11-16T07:22:02.040Z,8.10
2022-11-16T07:24:32.248Z,4.10
2022-11-16T07:27:03.092Z,2.95
2022-11-16T07:29:38.194Z,2.33
2022-11-16T07:32:41.487Z,2.45
2022-11-16T07:35:20.571Z,3.17
2022-11-16T07:37:50.697Z,4.55
2022-11-16T07:40:22.133Z,3.10
2022-11-16T07:42:52.817Z,2.33
2022-11-16T07:45:48.353Z,2.17
2022-11-16T07:48:18.621Z,2.63
2022-11-16T07:51:09.108Z,2.47
2022-11-16T07:53:45.643Z,2.55
2022-11-16T07:56:15.756Z,4.47
2022-11-16T07:58:47.231Z,3.33
2022-11-16T08:01:19.682Z,2.47
2022-11-16T08:03:55.447Z,3.40
2022-11-16T08:06:29.185Z,3.60
2022-11-16T08:09:00.289Z,2.67
2022-11-16T08:11:31.555Z,3.45
2022-11-16T08:14:01.917Z,3.58
2022-11-16T08:16:35.299Z,3.90
2022-11-16T08:19:11.935Z,6.22
2022-11-16T08:21:42.341Z,2.33
2022-11-16T08:24:12.624Z,1.90
2022-11-16T08:26:45.298Z,4.60
2022-11-16T08:29:17.406Z,3.25
2022-11-16T08:31:51.820Z,4.03
2022-11-16T08:34:24.174Z,2.75
2022-11-16T08:37:00.243Z,3.88
2022-11-16T08:39:42.937Z,4.13
2022-11-16T08:42:13.022Z,4.55
2022-11-16T08:44:47.563Z,3.03
2022-11-16T08:47:20.856Z,3.60
2022-11-16T08:49:57.049Z,4.03
2022-11-16T08:52:29.526Z,5.60
2022-11-16T08:55:01.436Z,3.80
2022-11-16T08:57:32.482Z,2.42
2022-11-16T09:00:08.683Z,4.38
2022-11-16T09:02:39.044Z,4.97
2022-11-16T09:05:12.953Z,2.95
2022-11-16T09:07:45.197Z,4.93
2022-11-16T09:10:15.589Z,2.45
2022-11-16T09:12:45.474Z,2.60
2022-11-16T09:15:15.376Z,3.88
2022-11-16T09:17:45.310Z,2.83
2022-11-16T09:20:15.545Z,3.83
2022-11-16T09:22:45.806Z,4.00
2022-11-16T09:25:15.790Z,2.58
2022-11-16T09:27:45.805Z,2.15
2022-11-16T09:30:16.066Z,3.00
2022-11-16T09:32:46.032Z,2.17
2022-11-16T09:35:16.008Z,2.47
2022-11-16T09:37:46.326Z,3.22
2022-11-16T09:40:16.283Z,6.05
2022-11-16T09:43:08.855Z,4.85
2022-11-16T09:45:58.435Z,3.55
2022-11-16T09:48:30.029Z,2.08
2022-11-16T09:51:08.604Z,2.20
2022-11-16T09:53:44.342Z,3.22
2022-11-16T09:56:26.648Z,6.35
2022-11-16T09:59:21.123Z,2.60
2022-11-16T10:01:57.798Z,2.90
2022-11-16T10:04:56.689Z,6.75
2022-11-16T10:07:38.307Z,5.32
2022-11-16T10:10:18.283Z,2.53
2022-11-16T10:13:13.934Z,4.40
2022-11-16T10:16:03.604Z,3.15
2022-11-16T10:18:46.397Z,2.60
2022-11-16T10:21:25.435Z,3.75
2022-11-16T10:24:04.402Z,2.65
2022-11-16T10:29:25.035Z,3.47
2022-11-16T10:32:19.167Z,5.05
2022-11-16T10:34:55.771Z,4.60
2022-11-16T10:37:31.783Z,6.28
2022-11-16T10:40:20.388Z,3.90
2022-11-16T10:43:07.486Z,4.20
2022-11-16T10:45:42.397Z,4.10
2022-11-16T10:48:17.554Z,2.47
2022-11-16T10:50:51.310Z,3.90
2022-11-16T10:53:39.075Z,6.80
2022-11-16T10:56:32.965Z,4.90
2022-11-16T10:59:08.306Z,5.50
2022-11-16T11:01:44.585Z,5.45
2022-11-16T11:04:27.482Z,7.20
2022-11-16T11:06:59.198Z,3.90
2022-11-16T11:09:35.815Z,8.10
2022-11-16T11:12:38.597Z,4.68
2022-11-16T11:15:27.826Z,5.72
2022-11-16T11:18:16.818Z,6.00
2022-11-16T11:20:54.050Z,2.85
2022-11-16T11:23:27.213Z,2.53
2022-11-16T11:26:00.934Z,5.10
2022-11-16T11:28:39.491Z,7.78
2022-11-16T11:31:47.414Z,6.70
2022-11-16T11:34:48.680Z,5.93
2022-11-16T11:37:23.871Z,5.30
2022-11-16T11:40:18.929Z,4.85
2022-11-16T11:43:01.311Z,9.10
2022-11-16T11:45:38.073Z,4.53
2022-11-16T11:48:49.061Z,3.78
2022-11-16T11:51:33.218Z,3.33
2022-11-16T11:54:06.464Z,2.20
2022-11-16T11:56:37.174Z,6.10
2022-11-16T11:59:07.327Z,5.55
2022-11-16T12:01:49.382Z,3.15
2022-11-16T12:04:54.251Z,3.95
2022-11-16T12:07:49.336Z,5.85
2022-11-16T12:10:31.436Z,2.40
2022-11-16T12:13:22.581Z,3.15
2022-11-16T12:19:07.447Z,3.67
2022-11-16T12:22:03.224Z,2.22
2022-11-16T12:24:57.939Z,2.95
2022-11-16T12:27:44.952Z,3.17
2022-11-16T12:30:23.930Z,1.88
2022-11-16T12:33:15.127Z,2.88
2022-11-16T12:36:12.071Z,1.52
2022-11-16T12:39:00.683Z,4.00
2022-11-16T12:41:41.046Z,1.98
2022-11-16T12:44:13.987Z,1.50
2022-11-16T12:46:58.685Z,1.10
2022-11-16T12:49:39.987Z,4.07
2022-11-16T12:52:44.365Z,5.35
2022-11-16T12:55:26.678Z,4.10
2022-11-16T12:58:07.373Z,0.82
2022-11-16T13:00:52.565Z,2.00
2022-11-16T13:03:30.307Z,2.92
2022-11-16T13:06:06.093Z,2.38
2022-11-16T13:08:45.315Z,1.92
2022-11-16T13:11:37.236Z,1.08
2022-11-16T13:14:14.759Z,2.47
2022-11-16T13:16:46.206Z,2.45
2022-11-16T13:19:19.211Z,2.22
2022-11-16T13:22:14.913Z,1.80
2022-11-16T13:25:01.957Z,2.80
2022-11-16T13:27:46.891Z,2.95
2022-11-16T13:30:24.134Z,1.20
2022-11-16T13:33:18.333Z,1.98
2022-11-16T13:35:48.994Z,2.60
2022-11-16T13:38:55.417Z,1.80
2022-11-16T13:41:35.121Z,1.85
2022-11-16T13:44:19.870Z,1.10
2022-11-16T13:47:05.934Z,1.48
2022-11-16T13:49:42.317Z,0.60
2022-11-16T13:52:23.729Z,3.65
2022-11-16T13:54:56.562Z,4.63
2022-11-16T14:00:03.569Z,5.90
2022-11-16T14:02:38.899Z,2.10
2022-11-16T14:05:14.851Z,1.95
2022-11-16T14:07:51.015Z,2.03
2022-11-16T14:10:46.887Z,2.08
2022-11-16T14:13:46.772Z,3.75
2022-11-16T14:16:20.551Z,2.67
2022-11-16T14:18:52.574Z,3.45
2022-11-16T14:22:08.841Z,1.55
2022-11-16T14:24:53.023Z,0.70
2022-11-16T14:27:40.332Z,2.50
2022-11-16T14:30:23.184Z,1.10
2022-11-16T14:32:56.408Z,1.58
2022-11-16T14:35:41.304Z,1.15
2022-11-16T14:38:26.326Z,0.88
2022-11-16T14:40:59.832Z,0.65
2022-11-16T14:43:37.365Z,1.60
2022-11-16T14:46:27.411Z,1.13
2022-11-16T14:49:00.756Z,1.00
2022-11-16T14:51:43.392Z,2.25
2022-11-16T14:54:18.054Z,0.70
2022-11-16T14:57:02.094Z,0.63
2022-11-16T14:59:33.171Z,0.47
2022-11-16T15:02:16.333Z,4.43
2022-11-16T15:04:47.297Z,0.82
2022-11-16T15:07:19.570Z,0.68
2022-11-16T15:10:02.143Z,1.70
2022-11-16T15:12:43.535Z,1.23
2022-11-16T15:15:18.197Z,1.73
2022-11-16T15:18:02.692Z,1.48
2022-11-16T15:20:35.261Z,2.28
2022-11-16T15:23:15.161Z,0.43
2022-11-16T15:25:55.538Z,1.08
2022-11-16T15:28:29.226Z,0.98
2022-11-16T15:31:00.337Z,1.50
2022-11-16T15:33:53.892Z,1.88
2022-11-16T15:36:51.243Z,2.00
2022-11-16T15:39:29.020Z,2.75
2022-11-16T15:42:03.784Z,1.85
2022-11-16T15:44:35.928Z,0.98
2022-11-16T15:47:06.617Z,2.25
2022-11-16T15:49:41.730Z,1.00
2022-11-16T15:52:12.551Z,1.42
2022-11-16T15:55:00.824Z,1.60
2022-11-16T15:57:31.998Z,3.78
2022-11-16T16:00:02.394Z,1.17
2022-11-16T16:02:34.631Z,1.05
2022-11-16T16:05:05.594Z,0.80
2022-11-16T16:07:43.276Z,0.93
2022-11-16T16:13:01.010Z,1.10
2022-11-16T16:15:37.819Z,1.20
2022-11-16T16:18:37.489Z,2.78
2022-11-16T16:21:08.030Z,1.02
2022-11-16T16:23:57.530Z,2.47
2022-11-16T16:26:28.223Z,3.25
2022-11-16T16:28:58.215Z,6.22
2022-11-16T16:31:28.109Z,1.83
2022-11-16T16:34:00.661Z,1.05
2022-11-16T16:36:30.985Z,2.92
2022-11-16T16:39:01.091Z,1.17
2022-11-16T16:41:31.336Z,0.73
2022-11-16T16:44:02.822Z,0.65
2022-11-16T16:49:05.275Z,2.17
2022-11-16T16:51:37.479Z,0.95
2022-11-16T16:54:16.004Z,4.95
2022-11-16T16:56:48.752Z,2.03
2022-11-16T16:59:19.635Z,2.35
2022-11-16T17:01:49.966Z,2.17
2022-11-16T17:04:22.079Z,3.63
2022-11-16T17:06:55.151Z,1.02
2022-11-16T17:09:27.062Z,2.38
2022-11-16T17:11:59.668Z,1.58
2022-11-16T17:14:31.653Z,2.90
2022-11-16T17:19:34.134Z,0.98
2022-11-16T17:22:04.470Z,2.90
2022-11-16T17:24:37.724Z,1.10
2022-11-16T17:27:09.463Z,1.40
2022-11-16T17:29:43.074Z,2.05
2022-11-16T17:32:14.388Z,0.80
2022-11-16T17:35:06.910Z,0.95
2022-11-16T17:37:42.104Z,3.53
2022-11-16T17:40:13.609Z,0.43
2022-11-16T17:42:44.843Z,0.40
2022-11-16T17:45:16.492Z,0.82
2022-11-16T17:47:48.221Z,3.28
2022-11-16T17:50:19.272Z,1.10
2022-11-16T17:52:51.028Z,0.68
2022-11-16T17:55:22.623Z,5.40
2022-11-16T17:57:54.411Z,2.75
2022-11-16T18:00:25.289Z,2.75
2022-11-16T18:02:55.614Z,0.98
2022-11-16T18:05:26.043Z,0.68
2022-11-16T18:07:56.188Z,2.28
2022-11-16T18:10:26.800Z,1.95
2022-11-16T18:12:56.708Z,0.70
2022-11-16T18:15:28.859Z,2.58
2022-11-16T18:17:59.293Z,1.85
2022-11-16T18:20:31.523Z,2.17
2022-11-16T18:23:02.069Z,1.10
2022-11-16T18:25:32.575Z,1.63
2022-11-16T18:28:02.434Z,0.50
2022-11-16T18:30:32.673Z,3.50
2022-11-16T18:33:02.525Z,0.85
2022-11-16T18:35:32.943Z,2.17
2022-11-16T18:38:03.313Z,0.77
2022-11-16T18:40:33.820Z,0.50
2022-11-16T18:43:03.747Z,0.65
2022-11-16T18:45:33.672Z,3.28
2022-11-16T18:48:03.531Z,0.60
2022-11-16T18:50:33.903Z,0.82
2022-11-16T18:53:04.730Z,0.73
2022-11-16T18:55:34.910Z,1.75
2022-11-16T18:58:22.920Z,0.65
2022-11-16T19:01:03.745Z,1.08
2022-11-16T19:03:35.107Z,1.30
2022-11-16T19:06:11.601Z,0.52
2022-11-16T19:08:43.169Z,0.38
2022-11-16T19:11:15.380Z,0.70
2022-11-16T19:13:47.109Z,0.63
2022-11-16T19:16:17.491Z,0.30
2022-11-16T19:18:47.448Z,0.40
2022-11-16T19:21:19.767Z,0.68
2022-11-16T19:23:53.589Z,0.35
2022-11-16T19:26:29.254Z,1.15
2022-11-16T19:29:00.657Z,0.90
2022-11-16T19:31:32.017Z,2.70
2022-11-16T19:34:05.777Z,0.60
2022-11-16T19:36:38.147Z,1.35
2022-11-16T19:39:08.491Z,1.67
2022-11-16T19:41:38.420Z,0.65
2022-11-16T19:44:08.555Z,3.22
2022-11-16T19:46:38.716Z,0.95
2022-11-16T19:49:11.267Z,1.95
2022-11-16T19:51:44.573Z,1.00
2022-11-16T19:54:15.982Z,4.25
2022-11-16T19:56:53.609Z,0.60
2022-11-16T19:59:24.983Z,0.50
2022-11-16T20:01:54.886Z,2.10
2022-11-16T20:04:26.654Z,2.13
2022-11-16T20:06:57.136Z,1.17
2022-11-16T20:09:27.009Z,2.08
2022-11-16T20:12:00.982Z,4.30
2022-11-16T20:14:31.472Z,3.17
2022-11-16T20:17:02.097Z,1.38
2022-11-16T20:19:32.201Z,0.73
2022-11-16T20:22:02.071Z,1.15
2022-11-16T20:24:31.936Z,1.98
2022-11-16T20:27:03.327Z,0.70
2022-11-16T20:29:33.720Z,1.27
2022-11-16T20:32:03.588Z,1.60
2022-11-16T20:34:33.493Z,3.22
2022-11-16T20:37:03.402Z,2.88
2022-11-16T20:39:33.277Z,4.30
2022-11-16T20:42:03.581Z,10.05
2022-11-16T20:44:34.742Z,1.50
2022-11-16T20:47:05.716Z,1.30
2022-11-16T20:49:35.524Z,1.35
2022-11-16T20:52:05.530Z,1.95
2022-11-16T20:54:35.550Z,2.22
2022-11-16T20:57:05.922Z,2.75
2022-11-16T20:59:35.938Z,1.35
2022-11-16T21:02:06.338Z,0.57
2022-11-16T21:04:36.221Z,1.10
2022-11-16T21:07:06.195Z,2.60
2022-11-16T21:09:55.877Z,2.63
2022-11-16T21:12:44.718Z,2.05
2022-11-16T21:15:14.842Z,2.42
2022-11-16T21:17:44.686Z,0.50
2022-11-16T21:20:29.971Z,1.67
2022-11-16T21:23:00.677Z,4.07
2022-11-16T21:25:30.772Z,1.92
2022-11-16T21:28:00.672Z,2.92
2022-11-16T21:30:31.448Z,6.45
2022-11-16T21:33:01.952Z,4.30
2022-11-16T21:35:32.591Z,3.75
2022-11-16T21:38:03.290Z,13.75
2022-11-16T21:40:33.575Z,9.07
2022-11-16T21:43:03.425Z,11.65
2022-11-16T21:45:33.255Z,17.48
2022-11-16T21:48:03.586Z,12.23
2022-11-16T21:50:33.545Z,10.50
2022-11-16T21:53:03.786Z,12.13
2022-11-16T21:55:34.081Z,12.85
2022-11-16T21:58:07.419Z,12.40
2022-11-16T22:00:37.703Z,15.43
2022-11-16T22:03:07.790Z,8.38
2022-11-16T22:05:55.627Z,10.15
2022-11-16T22:08:26.366Z,8.15
2022-11-16T22:10:56.406Z,5.07
2022-11-16T22:13:26.253Z,12.13
2022-11-16T22:15:56.150Z,9.93
2022-11-16T22:18:26.328Z,16.25
2022-11-16T22:20:56.210Z,20.02
2022-11-16T22:23:26.497Z,20.90
2022-11-16T22:25:56.866Z,11.80
2022-11-16T22:28:27.047Z,10.30
2022-11-16T22:31:02.946Z,8.18
2022-11-16T22:33:36.185Z,4.20
2022-11-16T22:36:24.567Z,6.75
2022-11-16T22:38:55.130Z,20.13
2022-11-16T22:41:24.989Z,18.20
2022-11-16T22:43:54.926Z,17.05
2022-11-16T22:46:25.295Z,15.63
2022-11-16T22:48:55.399Z,5.07
2022-11-16T22:51:29.857Z,8.10
2022-11-16T22:54:05.200Z,3.35
2022-11-16T22:56:35.610Z,5.15
2022-11-16T22:59:06.891Z,4.55
2022-11-16T23:01:37.951Z,6.35
2022-11-16T23:04:08.113Z,13.13
2022-11-16T23:06:37.958Z,11.15
2022-11-16T23:09:08.066Z,4.65
2022-11-16T23:11:56.203Z,4.85
2022-11-16T23:14:44.888Z,8.85
2022-11-16T23:17:14.941Z,6.68
2022-11-16T23:20:03.133Z,2.97
2022-11-16T23:22:51.894Z,5.32
2022-11-16T23:25:40.266Z,9.07
2022-11-16T23:28:16.070Z,4.30
2022-11-16T23:30:46.196Z,9.00
2022-11-16T23:33:17.078Z,6.90
2022-11-16T23:35:47.440Z,7.07
2022-11-16T23:38:17.342Z,4.13
2022-11-16T23:40:47.231Z,3.13
2022-11-16T23:43:36.404Z,3.65
2022-11-16T23:46:07.133Z,5.88
2022-11-16T23:48:37.533Z,4.75
2022-11-16T23:51:07.580Z,5.93
2022-11-16T23:53:37.715Z,4.50
2022-11-16T23:56:08.256Z,4.03
2022-11-16T23:58:38.664Z,4.90
